sensor_id;sensor_type;location;lat;lon;timestamp;pressure;altitude;pressure_sealevel;temperature;humidity
74913;BME280;63878;55.624;37.304;2023-05-02T00:04:22;99457.78;;;-0.16;59.51
74913;BME280;63878;55.624;37.304;2023-05-02T00:14:23;99478.72;;;-0.20;59.55
74913;BME280;63878;55.624;37.304;2023-05-02T00:24:24;99491.03;;;-0.25;60.00
74913;BME280;63878;55.624;37.304;2023-05-02T00:34:30;99480.06;;;-0.55;60.36
74913;BME280;63878;55.624;37.304;2023-05-02T00:44:31;99513.63;;;-0.51;61.08
74913;BME280;63878;55.624;37.304;2023-05-02T00:54:31;99520.78;;;-0.57;61.03
74913;BME280;63878;55.624;37.304;2023-05-02T01:14:41;99528.44;;;-0.78;62.98
74913;BME280;63878;55.624;37.304;2023-05-02T01:24:52;99544.19;;;-0.84;62.43
74913;BME280;63878;55.624;37.304;2023-05-02T01:34:56;99552.91;;;-0.86;62.16
74913;BME280;63878;55.624;37.304;2023-05-02T01:44:57;99550.97;;;-1.05;62.61
74913;BME280;63878;55.624;37.304;2023-05-02T01:54:59;99592.22;;;-0.99;62.74
74913;BME280;63878;55.624;37.304;2023-05-02T02:05:01;99595.03;;;-1.06;62.75
74913;BME280;63878;55.624;37.304;2023-05-02T02:25:17;99618.59;;;-1.14;62.98
74913;BME280;63878;55.624;37.304;2023-05-02T02:35:18;99628.53;;;-1.00;62.59
74913;BME280;63878;55.624;37.304;2023-05-02T02:45:33;99618.91;;;-0.47;60.97
74913;BME280;63878;55.624;37.304;2023-05-02T02:55:46;99634.28;;;0.06;59.61
74913;BME280;63878;55.624;37.304;2023-05-02T03:05:48;99636.13;;;0.48;57.80
74913;BME280;63878;55.624;37.304;2023-05-02T03:25:52;99674.63;;;1.67;54.83
74913;BME280;63878;55.624;37.304;2023-05-02T03:35:52;99681.09;;;1.97;53.58
74913;BME280;63878;55.624;37.304;2023-05-02T03:45:53;99692.69;;;2.29;52.81
74913;BME280;63878;55.624;37.304;2023-05-02T03:55:53;99698.41;;;2.92;51.90
74913;BME280;63878;55.624;37.304;2023-05-02T04:05:54;99709.94;;;3.59;49.10
74913;BME280;63878;55.624;37.304;2023-05-02T04:15:55;99714.06;;;3.98;48.52
74913;BME280;63878;55.624;37.304;2023-05-02T04:25:55;99718.38;;;4.48;47.83
74913;BME280;63878;55.624;37.304;2023-05-02T04:35:56;99732.66;;;4.74;48.18
74913;BME280;63878;55.624;37.304;2023-05-02T04:45:57;99746.81;;;5.63;46.62
74913;BME280;63878;55.624;37.304;2023-05-02T04:55:57;99756.56;;;6.34;45.59
74913;BME280;63878;55.624;37.304;2023-05-02T05:05:58;99752.06;;;6.64;44.91
74913;BME280;63878;55.624;37.304;2023-05-02T05:15:58;99747.44;;;6.96;42.87
74913;BME280;63878;55.624;37.304;2023-05-02T05:26:09;99764.38;;;7.59;41.74
74913;BME280;63878;55.624;37.304;2023-05-02T05:36:12;99766.22;;;7.84;40.51
74913;BME280;63878;55.624;37.304;2023-05-02T05:46:13;99765.28;;;8.10;38.74
74913;BME280;63878;55.624;37.304;2023-05-02T05:56:13;99756.72;;;8.34;37.43
74913;BME280;63878;55.624;37.304;2023-05-02T06:06:14;99765.53;;;8.58;35.65
74913;BME280;63878;55.624;37.304;2023-05-02T06:16:14;99764.91;;;8.04;33.89
74913;BME280;63878;55.624;37.304;2023-05-02T06:26:15;99764.78;;;8.05;33.05
74913;BME280;63878;55.624;37.304;2023-05-02T06:36:16;99784.56;;;8.24;32.68
74913;BME280;63878;55.624;37.304;2023-05-02T06:46:16;99783.31;;;8.42;30.23
74913;BME280;63878;55.624;37.304;2023-05-02T06:56:18;99773.50;;;8.57;31.31
74913;BME280;63878;55.624;37.304;2023-05-02T07:06:19;99778.16;;;8.66;31.69
74913;BME280;63878;55.624;37.304;2023-05-02T07:16:20;99784.44;;;8.76;30.85
74913;BME280;63878;55.624;37.304;2023-05-02T07:26:20;99780.13;;;8.75;29.69
74913;BME280;63878;55.624;37.304;2023-05-02T07:36:21;99775.16;;;9.20;27.14
74913;BME280;63878;55.624;37.304;2023-05-02T07:46:22;99766.41;;;9.43;36.22
74913;BME280;63878;55.624;37.304;2023-05-02T07:56:23;99760.56;;;10.21;25.06
74913;BME280;63878;55.624;37.304;2023-05-02T08:06:24;99757.47;;;10.50;39.57
74913;BME280;63878;55.624;37.304;2023-05-02T08:16:25;99765.13;;;8.39;27.64
74913;BME280;63878;55.624;37.304;2023-05-02T08:26:26;99755.44;;;8.27;28.00
74913;BME280;63878;55.624;37.304;2023-05-02T08:36:27;99763.66;;;9.69;33.05
74913;BME280;63878;55.624;37.304;2023-05-02T08:46:28;99763.66;;;9.21;27.81
74913;BME280;63878;55.624;37.304;2023-05-02T08:56:31;99756.88;;;9.30;28.15
74913;BME280;63878;55.624;37.304;2023-05-02T09:06:32;99748.63;;;9.47;38.17
74913;BME280;63878;55.624;37.304;2023-05-02T09:16:37;99726.13;;;9.54;37.85
74913;BME280;63878;55.624;37.304;2023-05-02T09:26:39;99728.34;;;8.63;32.10
74913;BME280;63878;55.624;37.304;2023-05-02T09:36:45;99721.38;;;9.11;26.50
74913;BME280;63878;55.624;37.304;2023-05-02T09:46:48;99718.06;;;8.47;28.31
74913;BME280;63878;55.624;37.304;2023-05-02T09:56:55;99708.03;;;9.37;33.36
74913;BME280;63878;55.624;37.304;2023-05-02T10:06:56;99710.22;;;9.43;37.74
74913;BME280;63878;55.624;37.304;2023-05-02T10:17:04;99696.03;;;9.57;35.88
74913;BME280;63878;55.624;37.304;2023-05-02T10:27:05;99688.00;;;9.47;29.48
74913;BME280;63878;55.624;37.304;2023-05-02T10:37:06;99678.16;;;9.14;29.44
74913;BME280;63878;55.624;37.304;2023-05-02T10:47:24;99678.34;;;9.70;35.69
74913;BME280;63878;55.624;37.304;2023-05-02T10:57:25;99673.22;;;9.80;39.47
74913;BME280;63878;55.624;37.304;2023-05-02T11:07:25;99646.28;;;9.41;28.64
74913;BME280;63878;55.624;37.304;2023-05-02T11:17:26;99651.50;;;9.54;39.71
74913;BME280;63878;55.624;37.304;2023-05-02T11:37:32;99644.47;;;9.06;29.51
74913;BME280;63878;55.624;37.304;2023-05-02T11:47:32;99633.72;;;9.44;28.01
74913;BME280;63878;55.624;37.304;2023-05-02T11:57:33;99625.75;;;9.91;30.58
74913;BME280;63878;55.624;37.304;2023-05-02T12:07:41;99606.34;;;10.25;40.92
74913;BME280;63878;55.624;37.304;2023-05-02T12:17:47;99597.28;;;10.62;41.64
74913;BME280;63878;55.624;37.304;2023-05-02T12:27:59;99589.69;;;10.14;27.28
74913;BME280;63878;55.624;37.304;2023-05-02T12:38:16;99589.34;;;9.85;27.76
74913;BME280;63878;55.624;37.304;2023-05-02T12:48:25;99580.66;;;10.39;41.29
74913;BME280;63878;55.624;37.304;2023-05-02T12:58:26;99576.22;;;10.39;33.86
74913;BME280;63878;55.624;37.304;2023-05-02T13:08:26;99564.25;;;10.13;29.92
74913;BME280;63878;55.624;37.304;2023-05-02T13:18:27;99533.97;;;9.51;27.98
74913;BME280;63878;55.624;37.304;2023-05-02T13:28:28;99543.56;;;9.75;28.73
74913;BME280;63878;55.624;37.304;2023-05-02T13:38:28;99551.81;;;9.81;28.03
74913;BME280;63878;55.624;37.304;2023-05-02T13:48:29;99535.75;;;9.62;29.26
74913;BME280;63878;55.624;37.304;2023-05-02T13:58:30;99530.53;;;10.27;38.68
74913;BME280;63878;55.624;37.304;2023-05-02T14:08:33;99514.09;;;10.24;32.12
74913;BME280;63878;55.624;37.304;2023-05-02T14:18:35;99514.22;;;10.22;35.36
74913;BME280;63878;55.624;37.304;2023-05-02T14:28:35;99511.19;;;10.38;33.20
74913;BME280;63878;55.624;37.304;2023-05-02T14:38:36;99504.66;;;10.65;41.23
74913;BME280;63878;55.624;37.304;2023-05-02T14:48:36;99490.81;;;10.61;41.80
74913;BME280;63878;55.624;37.304;2023-05-02T14:58:37;99494.38;;;10.71;33.06
74913;BME280;63878;55.624;37.304;2023-05-02T15:08:38;99499.38;;;10.10;30.00
74913;BME280;63878;55.624;37.304;2023-05-02T15:18:39;99490.19;;;9.93;32.74
74913;BME280;63878;55.624;37.304;2023-05-02T15:28:43;99488.63;;;9.91;28.21
74913;BME280;63878;55.624;37.304;2023-05-02T15:38:46;99483.63;;;9.88;29.30
74913;BME280;63878;55.624;37.304;2023-05-02T15:48:47;99455.50;;;9.66;28.46
74913;BME280;63878;55.624;37.304;2023-05-02T15:58:48;99478.91;;;10.03;29.86
74913;BME280;63878;55.624;37.304;2023-05-02T16:08:49;99475.81;;;10.30;32.73
74913;BME280;63878;55.624;37.304;2023-05-02T16:18:51;99470.03;;;10.04;28.82
74913;BME280;63878;55.624;37.304;2023-05-02T16:28:52;99464.59;;;9.73;30.05
74913;BME280;63878;55.624;37.304;2023-05-02T16:38:52;99466.53;;;9.60;30.11
74913;BME280;63878;55.624;37.304;2023-05-02T16:48:53;99461.47;;;9.34;29.40
74913;BME280;63878;55.624;37.304;2023-05-02T16:58:54;99463.88;;;9.49;32.59
74913;BME280;63878;55.624;37.304;2023-05-02T17:08:54;99455.00;;;9.16;30.34
74913;BME280;63878;55.624;37.304;2023-05-02T17:18:55;99451.28;;;9.07;31.13
74913;BME280;63878;55.624;37.304;2023-05-02T17:28:56;99449.69;;;8.71;31.62
74913;BME280;63878;55.624;37.304;2023-05-02T17:38:56;99451.66;;;8.56;32.61
74913;BME280;63878;55.624;37.304;2023-05-02T17:48:57;99430.53;;;8.34;32.23
74913;BME280;63878;55.624;37.304;2023-05-02T17:58:57;99436.00;;;8.07;33.16
74913;BME280;63878;55.624;37.304;2023-05-02T18:08:58;99430.16;;;8.27;36.49
74913;BME280;63878;55.624;37.304;2023-05-02T18:18:59;99412.13;;;9.14;42.94
74913;BME280;63878;55.624;37.304;2023-05-02T18:29:00;99395.84;;;8.29;33.41
74913;BME280;63878;55.624;37.304;2023-05-02T18:39:02;99408.06;;;8.87;39.43
74913;BME280;63878;55.624;37.304;2023-05-02T18:49:02;99419.69;;;9.07;42.28
74913;BME280;63878;55.624;37.304;2023-05-02T18:59:03;99406.97;;;8.79;39.07
74913;BME280;63878;55.624;37.304;2023-05-02T19:09:04;99402.47;;;8.57;44.75
74913;BME280;63878;55.624;37.304;2023-05-02T19:19:05;99395.88;;;7.44;34.54
74913;BME280;63878;55.624;37.304;2023-05-02T19:29:07;99381.56;;;6.99;35.08
74913;BME280;63878;55.624;37.304;2023-05-02T19:39:08;99376.53;;;6.96;36.64
74913;BME280;63878;55.624;37.304;2023-05-02T19:49:08;99365.00;;;6.98;35.35
74913;BME280;63878;55.624;37.304;2023-05-02T19:59:09;99361.38;;;7.25;35.53
74913;BME280;63878;55.624;37.304;2023-05-02T20:09:09;99345.44;;;7.03;35.85
74913;BME280;63878;55.624;37.304;2023-05-02T20:19:10;99346.25;;;7.16;36.55
74913;BME280;63878;55.624;37.304;2023-05-02T20:29:11;99347.69;;;7.33;39.35
74913;BME280;63878;55.624;37.304;2023-05-02T20:39:12;99337.09;;;6.85;35.05
74913;BME280;63878;55.624;37.304;2023-05-02T20:49:12;99319.66;;;6.71;36.50
74913;BME280;63878;55.624;37.304;2023-05-02T20:59:13;99330.56;;;6.78;35.33
74913;BME280;63878;55.624;37.304;2023-05-02T21:09:15;99321.75;;;6.66;36.37
74913;BME280;63878;55.624;37.304;2023-05-02T21:19:16;99308.41;;;6.56;39.27
74913;BME280;63878;55.624;37.304;2023-05-02T21:29:17;99301.91;;;6.36;37.45
74913;BME280;63878;55.624;37.304;2023-05-02T21:39:17;99303.38;;;6.15;37.72
74913;BME280;63878;55.624;37.304;2023-05-02T21:49:18;99309.09;;;5.82;38.14
74913;BME280;63878;55.624;37.304;2023-05-02T21:59:18;99300.72;;;5.77;38.66
74913;BME280;63878;55.624;37.304;2023-05-02T22:09:19;99288.03;;;5.44;38.70
74913;BME280;63878;55.624;37.304;2023-05-02T22:19:20;99272.06;;;5.34;38.82
74913;BME280;63878;55.624;37.304;2023-05-02T22:29:20;99276.25;;;4.95;40.18
74913;BME280;63878;55.624;37.304;2023-05-02T22:39:21;99259.13;;;4.77;40.03
74913;BME280;63878;55.624;37.304;2023-05-02T22:49:22;99250.69;;;4.86;40.46
74913;BME280;63878;55.624;37.304;2023-05-02T22:59:22;99246.28;;;4.87;41.04
74913;BME280;63878;55.624;37.304;2023-05-02T23:09:23;99227.53;;;4.80;40.76
74913;BME280;63878;55.624;37.304;2023-05-02T23:19:23;99212.34;;;4.72;41.56
74913;BME280;63878;55.624;37.304;2023-05-02T23:29:24;99215.06;;;4.42;42.61
74913;BME280;63878;55.624;37.304;2023-05-02T23:39:25;99210.06;;;4.11;43.33
74913;BME280;63878;55.624;37.304;2023-05-02T23:49:25;99202.75;;;4.16;43.65
74913;BME280;63878;55.624;37.304;2023-05-02T23:59:26;99198.47;;;4.15;43.12
